Etusivu
METAR-TAF:

METAR-TAF

Lentoasemat :

Ahvāz, Iran

Leveyspiiri: 31-20N, Pituuspiiri: 048-40E, korkeus merenpinnasta: 20 m

Tämänhetkinen sää

Tämä raportti tehtiin 27 minuuttia sitten, kello 11.00 UTC
Tuuli 10 kn luoteesta
Lämpötila 44°C
Kosteus 9%
Ilmanpaine 995 hPa
Näkyvyys: 8000 m

METAR: OIAW 231100Z 32010KT 8000 NSC 44/04 Q0995 NOSIG

Aika: 15:57 (11:27 UTC)

Sääennuste

Tämä raportti tehtiin 6 tuntia ja 17 minuuttia sitten, kello 05.10 UTC
Ennuste voimassa 23. päivästä klo 06 UTC - 24. päivään klo 12 UTC
Tuuli 8 kn luoteesta
Näkyvyys: 2000 m
Ajoittain
23. päivästä klo 09 UTC - 23. päivään klo 15 UTC
Tuuli 17 kn luoteesta
Näkyvyys: 2000 m
hiekkaa

TAF: OIAW 230510Z 2306/2412 31004MPS 2000 FU/HZ NSC TEMPO 2309/2315 31009MPS 2000 SA

Säähavainnot ja -ennusteet yli 4000 lentoasemalta (METAR- ja TAF-raportit).

Käytössä olevat sääasemat on merkitty karttaan keltaisilla ja punaisilla pisteillä.

Aseta hiiri pisteen päälle nähdäksesi sääaseman nimen.

Klikkaa sitten nähdäksesi säähavainnot ja -ennusteet.

Kartan vaihtaminen: klikkaa mustalla rastilla varustettuja vihreitä pisteitä, niin voit zoomata sisään; viivalla varustettua vihreää pistettä, niin voit zoomata ulos tai vihreitä nuolia, niin pääset viereisille kartoille.


METAR-TAF: